createdAt,value
2022-08-14T00:00:22.074Z,61.04
2022-08-14T00:01:39.602Z,62.22
2022-08-14T00:02:42.635Z,63.70
2022-08-14T00:03:46.112Z,64.60
2022-08-14T00:04:47.755Z,64.34
2022-08-14T00:05:58.103Z,63.54
2022-08-14T00:07:00.246Z,62.55
2022-08-14T00:08:02.101Z,61.64
2022-08-14T00:09:04.221Z,60.85
2022-08-14T00:10:52.199Z,60.29
2022-08-14T00:11:32.388Z,59.42
2022-08-14T00:12:39.585Z,58.50
2022-08-14T00:13:43.125Z,58.13
2022-08-14T00:14:55.273Z,58.80
2022-08-14T00:15:59.729Z,59.80
2022-08-14T00:17:01.806Z,60.79
2022-08-14T00:18:06.800Z,61.66
2022-08-14T00:19:19.819Z,62.63
2022-08-14T00:20:30.871Z,64.09
2022-08-14T00:21:38.410Z,64.28
2022-08-14T00:22:56.698Z,63.51
2022-08-14T00:24:01.759Z,62.33
2022-08-14T00:25:05.727Z,61.36
2022-08-14T00:26:08.410Z,60.69
2022-08-14T00:27:23.297Z,59.90
2022-08-14T00:28:29.064Z,59.37
2022-08-14T00:29:40.439Z,58.39
2022-08-14T00:30:48.467Z,58.14
2022-08-14T00:31:56.350Z,58.77
2022-08-14T00:32:58.430Z,59.99
2022-08-14T00:34:36.990Z,60.75
2022-08-14T00:35:43.039Z,61.88
2022-08-14T00:36:49.377Z,63.33
2022-08-14T00:37:51.991Z,64.58
2022-08-14T00:38:54.369Z,64.46
2022-08-14T00:39:56.201Z,63.88
2022-08-14T00:40:58.034Z,63.05
2022-08-14T00:41:59.993Z,62.02
2022-08-14T00:43:03.390Z,61.19
2022-08-14T00:44:05.106Z,60.58
2022-08-14T00:45:11.577Z,60.12
2022-08-14T00:46:32.317Z,59.65
2022-08-14T00:47:42.971Z,58.76
2022-08-14T00:48:48.988Z,58.26
2022-08-14T00:49:58.533Z,58.71
2022-08-14T00:51:00.807Z,59.97
2022-08-14T00:52:02.853Z,60.99
2022-08-14T00:53:05.981Z,61.75
2022-08-14T00:54:21.185Z,63.33
2022-08-14T00:55:25.661Z,64.64
2022-08-14T00:56:31.221Z,64.46
2022-08-14T00:57:35.970Z,63.85
2022-08-14T00:58:45.226Z,63.09
2022-08-14T00:59:51.365Z,61.79
2022-08-14T01:00:57.478Z,61.08
2022-08-14T01:02:01.223Z,60.67
2022-08-14T01:03:06.027Z,60.25
2022-08-14T01:04:08.215Z,59.78
2022-08-14T01:05:41.759Z,59.44
2022-08-14T01:06:55.227Z,58.34
2022-08-14T01:08:00.720Z,58.42
2022-08-14T01:09:05.358Z,58.99
2022-08-14T01:10:07.686Z,60.18
2022-08-14T01:11:19.108Z,61.12
2022-08-14T01:12:27.019Z,61.98
2022-08-14T01:13:42.711Z,63.28
2022-08-14T01:14:45.020Z,64.71
2022-08-14T01:15:57.727Z,64.96
2022-08-14T01:17:04.062Z,64.07
2022-08-14T01:18:24.387Z,63.36
2022-08-14T01:19:48.117Z,62.26
2022-08-14T01:21:06.392Z,61.53
2022-08-14T01:22:12.357Z,60.83
2022-08-14T01:23:15.626Z,60.45
2022-08-14T01:24:24.843Z,60.00
2022-08-14T01:25:32.776Z,59.55
2022-08-14T01:26:38.915Z,59.42
2022-08-14T01:27:54.597Z,58.67
2022-08-14T01:28:59.918Z,58.37
2022-08-14T01:30:04.575Z,58.84
2022-08-14T01:31:14.359Z,60.15
2022-08-14T01:32:23.153Z,61.01
2022-08-14T01:33:29.139Z,62.42
2022-08-14T01:35:17.179Z,63.73
2022-08-14T01:36:03.792Z,64.35
2022-08-14T01:37:10.873Z,63.80
2022-08-14T01:38:15.140Z,63.03
2022-08-14T01:39:18.915Z,62.24
2022-08-14T01:40:25.788Z,61.56
2022-08-14T01:41:37.379Z,60.90
2022-08-14T01:42:42.475Z,60.39
2022-08-14T01:44:00.941Z,59.91
2022-08-14T01:45:05.661Z,59.48
2022-08-14T01:46:11.482Z,58.84
2022-08-14T01:47:27.338Z,58.41
2022-08-14T01:48:37.524Z,59.11
2022-08-14T01:49:46.505Z,60.05
2022-08-14T01:51:02.855Z,61.65
2022-08-14T01:52:08.995Z,62.55
2022-08-14T01:53:25.229Z,64.04
2022-08-14T01:54:37.987Z,64.90
2022-08-14T01:55:40.716Z,64.39
2022-08-14T01:56:44.631Z,63.61
2022-08-14T01:58:00.460Z,62.86
2022-08-14T01:59:21.775Z,62.03
2022-08-14T02:00:23.973Z,61.25
2022-08-14T02:01:30.259Z,60.87
2022-08-14T02:02:36.865Z,60.54
2022-08-14T02:03:41.105Z,60.19
2022-08-14T02:04:57.326Z,59.74
2022-08-14T02:06:03.999Z,59.55
2022-08-14T02:07:27.179Z,58.86
2022-08-14T02:08:53.347Z,58.46
2022-08-14T02:09:57.041Z,59.53
2022-08-14T02:11:22.202Z,60.39
2022-08-14T02:12:26.635Z,61.96
2022-08-14T02:13:31.279Z,63.14
2022-08-14T02:14:37.496Z,64.75
2022-08-14T02:15:40.820Z,64.85
2022-08-14T02:16:53.042Z,64.18
2022-08-14T02:17:56.668Z,63.36
2022-08-14T02:19:01.786Z,62.56
2022-08-14T02:20:04.938Z,61.87
2022-08-14T02:21:07.178Z,61.36
2022-08-14T02:22:08.892Z,61.13
2022-08-14T02:23:12.126Z,60.80
2022-08-14T02:24:39.670Z,60.59
2022-08-14T02:25:36.902Z,60.41
2022-08-14T02:28:18.479Z,60.12
2022-08-14T02:28:22.113Z,59.94
2022-08-14T02:30:00.210Z,59.77
2022-08-14T02:30:52.921Z,59.67
2022-08-14T02:31:57.473Z,59.59
2022-08-14T02:33:01.221Z,59.53
2022-08-14T02:34:29.192Z,59.54
2022-08-14T02:35:32.741Z,59.47
2022-08-14T02:37:02.933Z,59.37
2022-08-14T02:37:56.452Z,58.93
2022-08-14T02:38:58.553Z,59.17
2022-08-14T02:40:00.502Z,60.33
2022-08-14T02:41:13.142Z,61.45
2022-08-14T02:42:23.383Z,62.49
2022-08-14T02:43:36.755Z,64.55
2022-08-14T02:44:49.384Z,65.36
2022-08-14T02:45:51.304Z,64.88
2022-08-14T02:47:01.586Z,64.22
2022-08-14T02:48:06.980Z,63.53
2022-08-14T02:49:12.538Z,62.87
2022-08-14T02:50:16.848Z,62.41
2022-08-14T02:51:19.279Z,62.03
2022-08-14T02:52:26.841Z,61.74
2022-08-14T02:53:46.730Z,61.45
2022-08-14T02:54:48.468Z,61.24
2022-08-14T02:55:50.313Z,61.09
2022-08-14T02:57:16.281Z,60.95
2022-08-14T02:58:30.931Z,60.79
2022-08-14T02:59:35.643Z,60.69
2022-08-14T03:00:40.035Z,60.55
2022-08-14T03:01:50.600Z,60.47
2022-08-14T03:02:59.031Z,60.36
2022-08-14T03:04:02.078Z,60.34
2022-08-14T03:05:04.221Z,60.32
2022-08-14T03:06:08.951Z,60.26
2022-08-14T03:07:10.793Z,60.22
2022-08-14T03:08:19.966Z,60.19
2022-08-14T03:09:22.599Z,60.11
2022-08-14T03:10:26.732Z,60.07
2022-08-14T03:11:34.727Z,59.99
2022-08-14T03:12:37.433Z,59.93
2022-08-14T03:13:44.863Z,59.88
2022-08-14T03:14:49.981Z,59.83
2022-08-14T03:15:55.528Z,59.81
2022-08-14T03:16:58.149Z,59.84
2022-08-14T03:18:01.161Z,59.80
2022-08-14T03:19:07.110Z,59.76
2022-08-14T03:20:11.840Z,59.68
2022-08-14T03:21:17.236Z,59.57
2022-08-14T03:22:18.929Z,59.46
2022-08-14T03:23:21.261Z,59.22
2022-08-14T03:24:23.420Z,58.83
2022-08-14T03:25:25.581Z,59.21
2022-08-14T03:26:30.209Z,60.12
2022-08-14T03:27:35.478Z,61.36
2022-08-14T03:28:51.778Z,62.19
2022-08-14T03:29:54.264Z,64.14
2022-08-14T03:30:57.546Z,65.44
2022-08-14T03:32:01.840Z,65.40
2022-08-14T03:33:06.690Z,64.77
2022-08-14T03:34:10.331Z,64.04
2022-08-14T03:35:37.432Z,63.21
2022-08-14T03:37:37.445Z,62.62
2022-08-14T03:39:10.929Z,62.16
2022-08-14T03:39:32.098Z,61.75
2022-08-14T03:40:33.854Z,61.57
2022-08-14T03:41:35.573Z,61.36
2022-08-14T03:42:40.417Z,61.20
2022-08-14T03:43:44.207Z,61.06
2022-08-14T03:45:19.807Z,60.97
2022-08-14T03:46:39.220Z,60.82
2022-08-14T03:47:55.778Z,60.70
2022-08-14T03:48:54.239Z,60.64
2022-08-14T03:49:56.125Z,60.60
2022-08-14T03:51:01.517Z,60.55
2022-08-14T03:52:18.201Z,60.54
2022-08-14T03:53:27.045Z,60.50
2022-08-14T03:54:29.747Z,60.51
2022-08-14T03:55:31.434Z,60.51
2022-08-14T03:56:37.046Z,60.49
2022-08-14T03:57:42.679Z,60.49
2022-08-14T03:58:48.298Z,60.52
2022-08-14T03:59:51.300Z,60.54
2022-08-14T04:00:53.088Z,60.56
2022-08-14T04:02:01.236Z,60.56
2022-08-14T04:03:06.611Z,60.59
2022-08-14T04:04:09.117Z,60.61
2022-08-14T04:05:12.861Z,60.62
2022-08-14T04:06:21.161Z,60.63
2022-08-14T04:07:23.012Z,60.67
2022-08-14T04:08:30.446Z,60.71
2022-08-14T04:09:34.094Z,60.77
2022-08-14T04:10:36.463Z,60.79
2022-08-14T04:11:38.745Z,60.80
2022-08-14T04:12:41.506Z,60.83
2022-08-14T04:13:54.340Z,60.89
2022-08-14T04:14:57.332Z,60.91
2022-08-14T04:16:01.955Z,60.95
2022-08-14T04:17:10.201Z,60.98
2022-08-14T04:18:13.062Z,61.01
2022-08-14T04:19:23.867Z,60.99
2022-08-14T04:20:26.220Z,60.96
2022-08-14T04:21:29.439Z,60.94
2022-08-14T04:22:33.728Z,60.89
2022-08-14T04:23:36.877Z,60.79
2022-08-14T04:24:39.387Z,60.67
2022-08-14T04:25:41.088Z,60.62
2022-08-14T04:26:44.741Z,60.57
2022-08-14T04:28:01.627Z,60.49
2022-08-14T04:29:14.103Z,60.42
2022-08-14T04:30:29.702Z,60.39
2022-08-14T04:32:58.485Z,60.37
2022-08-14T04:33:05.338Z,60.36
2022-08-14T04:34:16.884Z,60.39
2022-08-14T04:35:23.575Z,60.41
2022-08-14T04:36:25.440Z,60.46
2022-08-14T04:37:46.432Z,60.49
2022-08-14T04:39:13.891Z,60.60
2022-08-14T04:40:35.826Z,60.70
2022-08-14T04:42:01.023Z,60.85
2022-08-14T04:43:21.839Z,60.95
2022-08-14T04:44:36.037Z,61.12
2022-08-14T04:45:42.816Z,61.26
2022-08-14T04:47:04.562Z,61.29
2022-08-14T04:48:13.483Z,61.36
2022-08-14T04:49:15.369Z,61.37
2022-08-14T04:50:17.105Z,61.39
2022-08-14T04:51:21.221Z,61.43
2022-08-14T04:52:25.678Z,61.44
2022-08-14T04:53:34.936Z,61.43
2022-08-14T04:54:37.568Z,61.42
2022-08-14T04:55:51.409Z,61.40
2022-08-14T04:56:57.850Z,61.41
2022-08-14T04:57:59.746Z,61.42
2022-08-14T04:59:10.100Z,61.41
2022-08-14T05:00:16.258Z,61.43
2022-08-14T05:01:20.249Z,61.48
2022-08-14T05:02:24.477Z,61.53
2022-08-14T05:03:30.205Z,61.52
2022-08-14T05:04:32.531Z,61.51
2022-08-14T05:05:34.710Z,61.51
2022-08-14T05:06:39.782Z,61.53
2022-08-14T05:07:54.288Z,61.51
2022-08-14T05:09:04.252Z,61.47
2022-08-14T05:10:12.832Z,61.41
2022-08-14T05:11:15.639Z,61.35
2022-08-14T05:13:12.841Z,61.32
2022-08-14T05:14:08.280Z,61.29
2022-08-14T05:15:00.955Z,61.28
2022-08-14T05:16:05.687Z,61.27
2022-08-14T05:17:08.556Z,61.25
2022-08-14T05:19:17.021Z,61.23
2022-08-14T05:19:44.246Z,61.22
2022-08-14T05:21:54.598Z,61.21
2022-08-14T05:22:18.930Z,61.18
2022-08-14T05:23:24.418Z,61.15
2022-08-14T05:24:26.057Z,61.12
2022-08-14T05:25:31.064Z,61.10
2022-08-14T05:26:36.204Z,61.05
2022-08-14T05:27:38.230Z,61.02
2022-08-14T05:28:44.960Z,61.00
2022-08-14T05:29:47.608Z,60.94
2022-08-14T05:30:52.658Z,60.88
2022-08-14T05:31:57.379Z,60.81
2022-08-14T05:33:01.336Z,60.77
2022-08-14T05:34:03.065Z,60.72
2022-08-14T05:35:05.502Z,60.68
2022-08-14T05:36:16.883Z,60.62
2022-08-14T05:37:19.056Z,60.63
2022-08-14T05:38:31.114Z,60.65
2022-08-14T05:39:34.288Z,60.66
2022-08-14T05:40:37.372Z,60.65
2022-08-14T05:41:51.082Z,60.62
2022-08-14T05:42:55.739Z,60.66
2022-08-14T05:43:58.780Z,60.71
2022-08-14T05:45:00.447Z,60.70
2022-08-14T05:46:02.357Z,60.67
2022-08-14T05:47:07.539Z,60.65
2022-08-14T05:48:32.979Z,60.59
2022-08-14T05:49:36.206Z,60.59
2022-08-14T05:50:40.495Z,60.54
2022-08-14T05:51:46.811Z,60.51
2022-08-14T05:52:51.265Z,60.44
2022-08-14T05:54:00.062Z,60.48
2022-08-14T05:55:12.141Z,60.47
2022-08-14T05:56:14.317Z,60.50
2022-08-14T05:57:16.030Z,60.54
2022-08-14T05:58:18.115Z,60.57
2022-08-14T05:59:30.121Z,60.61
2022-08-14T06:00:42.117Z,60.67
2022-08-14T06:01:44.194Z,60.74
2022-08-14T06:02:48.469Z,60.78
2022-08-14T06:03:50.764Z,60.76
2022-08-14T06:04:58.858Z,60.66
2022-08-14T06:06:00.653Z,60.57
2022-08-14T06:07:03.651Z,60.47
2022-08-14T06:08:08.761Z,60.28
2022-08-14T06:09:23.637Z,60.13
2022-08-14T06:10:30.708Z,60.04
2022-08-14T06:11:32.708Z,59.85
2022-08-14T06:12:56.533Z,59.79
2022-08-14T06:13:56.764Z,59.78
2022-08-14T06:14:59.481Z,59.68
2022-08-14T06:16:01.277Z,59.52
2022-08-14T06:17:03.187Z,59.39
2022-08-14T06:18:05.081Z,58.87
2022-08-14T06:19:11.243Z,58.84
2022-08-14T06:20:14.873Z,59.39
2022-08-14T06:21:17.586Z,60.49
2022-08-14T06:22:20.475Z,62.06
2022-08-14T06:23:23.320Z,63.81
2022-08-14T06:24:25.056Z,64.90
2022-08-14T06:25:28.199Z,64.98
2022-08-14T06:26:30.347Z,64.48
2022-08-14T06:27:40.248Z,63.84
2022-08-14T06:28:45.541Z,63.16
2022-08-14T06:29:47.425Z,62.53
2022-08-14T06:30:50.315Z,62.11
2022-08-14T06:32:00.145Z,61.76
2022-08-14T06:33:06.362Z,61.47
2022-08-14T06:35:04.822Z,61.25
2022-08-14T06:35:30.321Z,61.12
2022-08-14T06:36:32.334Z,61.01
2022-08-14T06:37:50.747Z,60.79
2022-08-14T06:38:53.436Z,60.60
2022-08-14T06:39:56.069Z,60.42
2022-08-14T06:40:58.173Z,60.37
2022-08-14T06:42:00.309Z,60.19
2022-08-14T06:43:09.250Z,60.26
2022-08-14T06:44:11.454Z,60.28
2022-08-14T06:45:14.037Z,60.22
2022-08-14T06:46:23.175Z,60.06
2022-08-14T06:47:43.939Z,59.97
2022-08-14T06:48:45.993Z,59.88
2022-08-14T06:49:48.658Z,59.80
2022-08-14T06:50:59.803Z,59.72
2022-08-14T06:52:02.398Z,59.72
2022-08-14T06:53:04.176Z,59.68
2022-08-14T06:54:08.378Z,59.62
2022-08-14T06:55:12.673Z,59.54
2022-08-14T06:56:14.888Z,59.46
2022-08-14T06:57:16.607Z,59.52
2022-08-14T06:58:28.463Z,59.59
2022-08-14T06:59:31.639Z,59.44
2022-08-14T07:00:35.545Z,59.03
2022-08-14T07:01:56.664Z,58.88
2022-08-14T07:03:19.443Z,59.59
2022-08-14T07:04:41.853Z,61.02
2022-08-14T07:05:58.159Z,62.30
2022-08-14T07:07:00.313Z,64.04
2022-08-14T07:08:02.183Z,64.90
2022-08-14T07:09:05.059Z,64.74
2022-08-14T07:10:16.825Z,64.01
2022-08-14T07:11:19.823Z,63.25
2022-08-14T07:12:54.872Z,62.41
2022-08-14T07:13:43.313Z,61.90
2022-08-14T07:14:45.005Z,61.62
2022-08-14T07:15:50.599Z,61.45
2022-08-14T07:16:57.490Z,61.21
2022-08-14T07:17:59.874Z,61.00
2022-08-14T07:19:02.235Z,60.63
2022-08-14T07:20:05.212Z,60.49
2022-08-14T07:21:09.782Z,60.35
2022-08-14T07:22:17.464Z,60.20
2022-08-14T07:23:25.968Z,60.00
2022-08-14T07:24:31.598Z,59.85
2022-08-14T07:25:35.244Z,59.82
2022-08-14T07:26:41.042Z,59.67
2022-08-14T07:27:43.755Z,59.47
2022-08-14T07:28:45.421Z,58.96
2022-08-14T07:29:47.096Z,58.48
2022-08-14T07:30:57.588Z,58.86
2022-08-14T07:32:07.134Z,60.26
2022-08-14T07:33:13.512Z,61.54
2022-08-14T07:34:35.968Z,62.25
2022-08-14T07:35:57.462Z,63.88
2022-08-14T07:37:01.390Z,64.97
2022-08-14T07:38:04.682Z,64.58
2022-08-14T07:39:12.349Z,63.79
2022-08-14T07:40:15.436Z,62.90
2022-08-14T07:41:31.190Z,62.03
2022-08-14T07:42:37.077Z,61.39
2022-08-14T07:43:40.391Z,60.96
2022-08-14T07:44:46.579Z,60.65
2022-08-14T07:45:50.971Z,60.34
2022-08-14T07:46:55.800Z,60.17
2022-08-14T07:47:58.051Z,59.90
2022-08-14T07:49:00.672Z,59.45
2022-08-14T07:50:12.445Z,58.85
2022-08-14T07:51:20.081Z,58.68
2022-08-14T07:52:21.931Z,59.39
2022-08-14T07:53:36.477Z,60.62
2022-08-14T07:54:38.889Z,61.71
2022-08-14T07:55:42.894Z,62.83
2022-08-14T07:56:48.770Z,63.99
2022-08-14T07:57:52.671Z,64.27
2022-08-14T07:58:59.560Z,63.74
2022-08-14T08:00:01.640Z,62.87
2022-08-14T08:01:14.164Z,61.99
2022-08-14T08:02:21.938Z,61.35
2022-08-14T08:03:28.130Z,60.74
2022-08-14T08:04:34.175Z,60.41
2022-08-14T08:05:38.096Z,60.07
2022-08-14T08:06:40.457Z,59.68
2022-08-14T08:07:45.406Z,59.35
2022-08-14T08:09:01.245Z,58.63
2022-08-14T08:11:01.407Z,58.64
2022-08-14T08:11:57.355Z,60.17
2022-08-14T08:12:59.074Z,61.19
2022-08-14T08:14:10.837Z,62.02
2022-08-14T08:15:19.440Z,63.32
2022-08-14T08:16:23.956Z,64.22
2022-08-14T08:17:28.309Z,64.00
2022-08-14T08:18:36.794Z,63.27
2022-08-14T08:19:41.267Z,62.53
2022-08-14T08:20:52.151Z,61.75
2022-08-14T08:21:55.296Z,61.15
2022-08-14T08:23:00.385Z,60.80
2022-08-14T08:24:04.143Z,60.41
2022-08-14T08:25:13.602Z,59.95
2022-08-14T08:26:15.962Z,59.35
2022-08-14T08:27:22.586Z,58.83
2022-08-14T08:28:31.413Z,59.00
2022-08-14T08:29:36.035Z,59.37
2022-08-14T08:30:49.354Z,60.30
2022-08-14T08:31:52.456Z,61.14
2022-08-14T08:32:56.352Z,62.16
2022-08-14T08:33:58.031Z,63.32
2022-08-14T08:34:59.880Z,64.15
2022-08-14T08:36:06.359Z,63.98
2022-08-14T08:37:09.683Z,63.03
2022-08-14T08:39:17.839Z,62.14
2022-08-14T08:40:03.002Z,61.03
2022-08-14T08:41:10.877Z,60.10
2022-08-14T08:42:13.213Z,59.57
2022-08-14T08:43:23.660Z,59.09
2022-08-14T08:44:31.815Z,58.34
2022-08-14T08:45:37.996Z,58.74
2022-08-14T08:46:40.106Z,59.09
2022-08-14T08:47:46.600Z,59.72
2022-08-14T08:50:00.048Z,61.01
2022-08-14T08:51:03.577Z,61.83
2022-08-14T08:52:06.865Z,62.53
2022-08-14T08:53:17.370Z,63.66
2022-08-14T08:54:19.851Z,63.76
2022-08-14T08:55:32.716Z,62.81
2022-08-14T08:56:39.926Z,61.68
2022-08-14T08:57:42.996Z,60.83
2022-08-14T08:58:44.645Z,60.23
2022-08-14T08:59:46.298Z,59.38
2022-08-14T09:00:58.778Z,58.29
2022-08-14T09:02:10.372Z,57.78
2022-08-14T09:03:15.721Z,58.29
2022-08-14T09:04:19.365Z,58.89
2022-08-14T09:05:23.246Z,59.68
2022-08-14T09:07:01.115Z,60.32
2022-08-14T09:07:46.556Z,61.07
2022-08-14T09:08:50.837Z,61.80
2022-08-14T09:10:00.030Z,62.58
2022-08-14T09:11:19.817Z,64.12
2022-08-14T09:12:23.147Z,64.35
2022-08-14T09:13:26.302Z,63.37
2022-08-14T09:14:31.814Z,62.25
2022-08-14T09:15:42.328Z,61.00
2022-08-14T09:16:48.245Z,60.06
2022-08-14T09:17:52.760Z,58.94
2022-08-14T09:18:57.508Z,57.44
2022-08-14T09:20:01.971Z,57.10
2022-08-14T09:21:07.067Z,57.61
2022-08-14T09:22:35.138Z,58.29
2022-08-14T09:23:34.804Z,59.00
2022-08-14T09:24:52.116Z,59.57
2022-08-14T09:25:59.690Z,60.26
2022-08-14T09:27:03.394Z,60.93
2022-08-14T09:28:09.367Z,61.12
2022-08-14T09:29:12.587Z,61.95
2022-08-14T09:30:32.479Z,62.33
2022-08-14T09:31:43.017Z,62.83
2022-08-14T09:33:11.157Z,64.15
2022-08-14T09:34:26.941Z,63.63
2022-08-14T09:36:10.629Z,62.35
2022-08-14T09:37:55.400Z,60.33
2022-08-14T09:39:34.415Z,58.19
2022-08-14T09:40:48.894Z,57.32
2022-08-14T09:42:33.312Z,57.83
2022-08-14T09:43:55.086Z,58.34
2022-08-14T09:45:15.341Z,58.97
2022-08-14T09:46:21.483Z,59.74
2022-08-14T09:47:51.840Z,60.48
2022-08-14T09:49:01.607Z,61.48
2022-08-14T09:50:03.537Z,62.33
2022-08-14T09:51:21.013Z,63.09
2022-08-14T09:52:34.209Z,63.68
2022-08-14T09:54:23.049Z,62.88
2022-08-14T09:55:28.138Z,60.90
2022-08-14T09:56:31.200Z,59.76
2022-08-14T09:57:33.418Z,58.51
2022-08-14T09:58:41.218Z,57.38
2022-08-14T09:59:50.435Z,56.89
2022-08-14T10:01:00.460Z,57.39
2022-08-14T10:02:02.322Z,58.17
2022-08-14T10:03:06.112Z,58.78
2022-08-14T10:04:34.965Z,59.56
2022-08-14T10:05:40.871Z,60.21
2022-08-14T10:06:46.826Z,60.69
2022-08-14T10:07:53.432Z,60.95
2022-08-14T10:09:01.903Z,61.27
2022-08-14T10:10:23.504Z,61.69
2022-08-14T10:11:34.949Z,61.96
2022-08-14T10:12:46.408Z,62.02
2022-08-14T10:13:54.234Z,62.30
2022-08-14T10:14:57.869Z,63.11
2022-08-14T10:16:01.765Z,63.97
2022-08-14T10:17:08.264Z,63.46
2022-08-14T10:18:17.572Z,62.62
2022-08-14T10:19:25.544Z,61.59
2022-08-14T10:20:42.978Z,60.95
2022-08-14T10:23:11.802Z,60.04
2022-08-14T10:23:33.683Z,58.33
2022-08-14T10:24:46.325Z,56.59
2022-08-14T10:25:58.980Z,56.54
2022-08-14T10:27:02.325Z,57.03
2022-08-14T10:28:04.898Z,57.66
2022-08-14T10:29:18.224Z,58.12
2022-08-14T10:30:34.921Z,58.57
2022-08-14T10:31:45.019Z,58.99
2022-08-14T10:32:51.234Z,59.38
2022-08-14T10:34:04.062Z,59.69
2022-08-14T10:35:16.802Z,60.21
2022-08-14T10:36:47.694Z,60.32
2022-08-14T10:37:52.213Z,61.14
2022-08-14T10:38:59.976Z,61.55
2022-08-14T10:40:10.453Z,61.67
2022-08-14T10:41:15.243Z,62.29
2022-08-14T10:42:20.941Z,63.05
2022-08-14T10:43:31.724Z,63.80
2022-08-14T10:44:46.012Z,63.41
2022-08-14T10:46:21.467Z,62.18
2022-08-14T10:48:02.624Z,60.14
2022-08-14T10:49:04.429Z,57.61
2022-08-14T10:50:07.753Z,56.68
2022-08-14T10:51:25.090Z,56.13
2022-08-14T10:52:35.646Z,56.60
2022-08-14T10:53:39.275Z,56.72
2022-08-14T10:54:47.560Z,57.08
2022-08-14T10:55:58.781Z,57.89
2022-08-14T10:57:20.309Z,58.24
2022-08-14T10:58:34.204Z,58.56
2022-08-14T10:59:55.009Z,58.79
2022-08-14T11:01:01.018Z,58.42
2022-08-14T11:02:03.472Z,58.38
2022-08-14T11:03:26.457Z,58.25
2022-08-14T11:04:30.759Z,58.22
2022-08-14T11:05:54.950Z,58.10
2022-08-14T11:06:59.216Z,58.21
2022-08-14T11:08:01.106Z,58.50
2022-08-14T11:09:12.494Z,58.06
2022-08-14T11:10:18.681Z,57.75
2022-08-14T11:11:22.814Z,57.95
2022-08-14T11:12:33.732Z,58.25
2022-08-14T11:13:50.614Z,58.17
2022-08-14T11:15:02.397Z,58.18
2022-08-14T11:16:04.760Z,57.86
2022-08-14T11:17:09.420Z,57.99
2022-08-14T11:18:20.619Z,58.29
2022-08-14T11:19:36.263Z,58.73
2022-08-14T11:20:39.400Z,58.37
2022-08-14T11:21:45.687Z,58.67
2022-08-14T11:22:57.891Z,58.57
2022-08-14T11:24:02.719Z,58.43
2022-08-14T11:25:44.002Z,58.01
2022-08-14T11:26:51.978Z,57.71
2022-08-14T11:27:56.755Z,57.78
2022-08-14T11:29:01.836Z,57.90
2022-08-14T11:30:49.333Z,57.72
2022-08-14T11:31:35.502Z,57.78
2022-08-14T11:32:44.575Z,57.99
2022-08-14T11:33:57.603Z,58.06
2022-08-14T11:35:02.625Z,58.36
2022-08-14T11:36:17.876Z,58.32
2022-08-14T11:37:33.860Z,58.57
2022-08-14T11:38:44.908Z,58.41
2022-08-14T11:39:48.580Z,58.43
2022-08-14T11:40:52.989Z,58.38
2022-08-14T11:41:58.014Z,57.81
2022-08-14T11:43:03.154Z,57.65
2022-08-14T11:44:05.349Z,57.83
2022-08-14T11:45:23.459Z,58.01
2022-08-14T11:46:30.292Z,57.85
2022-08-14T11:48:10.800Z,57.75
2022-08-14T11:49:06.067Z,58.65
2022-08-14T11:50:33.623Z,57.95
2022-08-14T11:51:53.502Z,57.17
2022-08-14T11:52:57.304Z,56.98
2022-08-14T11:54:06.405Z,56.59
2022-08-14T11:55:13.802Z,56.63
2022-08-14T11:56:15.740Z,57.07
2022-08-14T11:57:19.946Z,57.28
2022-08-14T11:58:28.519Z,57.75
2022-08-14T11:59:33.447Z,57.66
2022-08-14T12:00:49.734Z,57.65
2022-08-14T12:01:51.434Z,57.58
2022-08-14T12:03:02.984Z,57.70
2022-08-14T12:04:32.291Z,57.64
2022-08-14T12:05:39.882Z,57.70
2022-08-14T12:07:01.104Z,57.86
2022-08-14T12:08:11.128Z,58.06
2022-08-14T12:09:34.931Z,58.11
2022-08-14T12:10:42.667Z,58.37
2022-08-14T12:11:47.094Z,58.84
2022-08-14T12:12:54.762Z,59.09
2022-08-14T12:14:08.650Z,59.18
2022-08-14T12:15:17.105Z,59.60
2022-08-14T12:16:22.857Z,60.09
2022-08-14T12:17:28.485Z,59.80
2022-08-14T12:18:40.473Z,59.27
2022-08-14T12:19:50.633Z,58.76
2022-08-14T12:20:59.361Z,58.73
2022-08-14T12:22:03.090Z,59.12
2022-08-14T12:23:22.409Z,59.37
2022-08-14T12:24:35.875Z,59.49
2022-08-14T12:25:38.855Z,59.76
2022-08-14T12:26:41.386Z,59.44
2022-08-14T12:27:54.905Z,59.29
2022-08-14T12:29:13.210Z,58.85
2022-08-14T12:30:26.746Z,59.16
2022-08-14T12:31:36.326Z,59.06
2022-08-14T12:32:47.279Z,59.15
2022-08-14T12:34:00.358Z,59.10
2022-08-14T12:35:02.047Z,58.99
2022-08-14T12:36:09.897Z,58.35
2022-08-14T12:37:11.830Z,58.09
2022-08-14T12:38:19.294Z,58.15
2022-08-14T12:39:23.760Z,58.41
2022-08-14T12:40:28.756Z,58.52
2022-08-14T12:41:37.212Z,58.03
2022-08-14T12:42:52.575Z,57.95
2022-08-14T12:43:59.810Z,58.38
2022-08-14T12:45:03.966Z,58.34
2022-08-14T12:46:06.027Z,58.14
2022-08-14T12:47:17.728Z,58.11
2022-08-14T12:48:21.816Z,58.25
2022-08-14T12:49:34.330Z,58.45
2022-08-14T12:50:40.576Z,58.84
2022-08-14T12:51:57.146Z,59.79
2022-08-14T12:53:13.999Z,60.12
2022-08-14T12:54:28.286Z,59.11
2022-08-14T12:56:17.736Z,59.37
2022-08-14T12:57:09.269Z,59.87
2022-08-14T12:58:35.232Z,58.82
2022-08-14T12:59:37.309Z,57.65
2022-08-14T13:01:14.371Z,57.10
2022-08-14T13:02:27.021Z,57.46
2022-08-14T13:03:30.002Z,57.41
2022-08-14T13:04:35.423Z,57.84
2022-08-14T13:05:37.726Z,58.08
2022-08-14T13:06:45.118Z,57.88
2022-08-14T13:07:53.216Z,57.65
2022-08-14T13:09:00.150Z,56.90
2022-08-14T13:10:12.930Z,56.40
2022-08-14T13:11:34.616Z,55.70
2022-08-14T13:12:56.604Z,54.90
2022-08-14T13:14:02.451Z,54.87
2022-08-14T13:15:12.701Z,54.87
2022-08-14T13:16:20.492Z,55.07
2022-08-14T13:17:53.403Z,55.16
2022-08-14T13:19:01.811Z,54.74
2022-08-14T13:20:10.112Z,54.72
2022-08-14T13:21:13.994Z,55.49
2022-08-14T13:22:29.043Z,55.52
2022-08-14T13:23:37.508Z,55.50
2022-08-14T13:24:40.632Z,55.64
2022-08-14T13:25:55.614Z,55.17
2022-08-14T13:27:00.459Z,54.35
2022-08-14T13:28:04.194Z,54.28
2022-08-14T13:29:18.374Z,54.22
2022-08-14T13:30:27.426Z,53.83
2022-08-14T13:31:34.236Z,53.56
2022-08-14T13:32:39.373Z,53.30
2022-08-14T13:33:41.869Z,53.25
2022-08-14T13:34:47.513Z,53.52
2022-08-14T13:35:49.764Z,53.26
2022-08-14T13:36:59.246Z,53.03
2022-08-14T13:38:05.613Z,52.86
2022-08-14T13:39:09.220Z,52.61
2022-08-14T13:40:14.611Z,52.59
2022-08-14T13:41:31.448Z,52.89
2022-08-14T13:42:33.745Z,53.33
2022-08-14T13:43:49.103Z,53.31
2022-08-14T13:45:02.558Z,53.36
2022-08-14T13:46:06.103Z,53.52
2022-08-14T13:47:08.866Z,54.01
2022-08-14T13:48:27.670Z,54.39
2022-08-14T13:49:33.943Z,55.19
2022-08-14T13:50:39.389Z,55.79
2022-08-14T13:51:49.362Z,54.92
2022-08-14T13:52:59.574Z,54.76
2022-08-14T13:54:10.754Z,54.22
2022-08-14T13:55:15.853Z,53.41
2022-08-14T13:56:35.968Z,53.25
2022-08-14T13:57:49.510Z,52.91
2022-08-14T13:58:52.436Z,53.05
2022-08-14T13:59:55.958Z,52.34
2022-08-14T14:00:58.248Z,51.36
2022-08-14T14:02:07.971Z,50.71
2022-08-14T14:03:10.387Z,49.85
2022-08-14T14:04:19.844Z,49.50
2022-08-14T14:05:23.154Z,49.42
2022-08-14T14:06:25.326Z,49.34
2022-08-14T14:07:32.067Z,49.62
2022-08-14T14:08:47.057Z,49.63
2022-08-14T14:09:52.567Z,49.36
2022-08-14T14:10:56.219Z,49.36
2022-08-14T14:12:01.122Z,49.30
2022-08-14T14:13:05.925Z,49.25
2022-08-14T14:14:10.036Z,49.93
2022-08-14T14:15:48.433Z,49.76
2022-08-14T14:16:53.380Z,49.46
2022-08-14T14:17:57.257Z,49.15
2022-08-14T14:19:08.851Z,49.03
2022-08-14T14:20:15.313Z,48.79
2022-08-14T14:21:36.600Z,48.39
2022-08-14T14:23:01.659Z,48.39
2022-08-14T14:24:06.121Z,47.92
2022-08-14T14:25:08.605Z,47.39
2022-08-14T14:26:20.041Z,46.98
2022-08-14T14:27:40.324Z,47.04
2022-08-14T14:28:51.565Z,46.64
2022-08-14T14:30:00.599Z,46.72
2022-08-14T14:31:06.196Z,46.52
2022-08-14T14:32:11.366Z,45.98
2022-08-14T14:33:46.748Z,45.46
2022-08-14T14:34:54.480Z,45.73
2022-08-14T14:35:59.357Z,46.26
2022-08-14T14:37:04.944Z,45.87
2022-08-14T14:38:13.172Z,45.01
2022-08-14T14:39:23.400Z,44.93
2022-08-14T14:40:53.055Z,44.59
2022-08-14T14:41:56.199Z,44.18
2022-08-14T14:43:03.637Z,44.86
2022-08-14T14:44:15.710Z,45.24
2022-08-14T14:45:20.447Z,45.47
2022-08-14T14:46:36.686Z,45.50
2022-08-14T14:47:39.473Z,46.34
2022-08-14T14:48:46.463Z,46.10